sensor_id;sensor_type;location;lat;lon;timestamp;pressure;altitude;pressure_sealevel;temperature;humidity
61676;BME280;47574;52.090;5.244;2023-03-31T00:00:50;100298.0;;;16.88;53.55
61676;BME280;47574;52.090;5.244;2023-03-31T00:04:03;100292.0;;;16.87;53.77
61676;BME280;47574;52.090;5.244;2023-03-31T00:05:39;100284.0;;;16.47;54.85
61676;BME280;47574;52.090;5.244;2023-03-31T00:07:16;100283.0;;;16.84;54.11
61676;BME280;47574;52.090;5.244;2023-03-31T00:08:52;100282.0;;;16.79;54.16
61676;BME280;47574;52.090;5.244;2023-03-31T00:12:07;100280.0;;;16.75;54.54
61676;BME280;47574;52.090;5.244;2023-03-31T00:13:43;100276.0;;;16.86;54.2
61676;BME280;47574;52.090;5.244;2023-03-31T00:15:19;100268.0;;;16.96;53.98
61676;BME280;47574;52.090;5.244;2023-03-31T00:18:32;100267.0;;;16.98;53.82
61676;BME280;47574;52.090;5.244;2023-03-31T00:20:09;100261.0;;;16.84;54.36
61676;BME280;47574;52.090;5.244;2023-03-31T00:21:45;100258.0;;;16.91;54.12
61676;BME280;47574;52.090;5.244;2023-03-31T00:24:59;100253.0;;;16.87;54.21
61676;BME280;47574;52.090;5.244;2023-03-31T00:26:37;100241.0;;;16.91;54.27
61676;BME280;47574;52.090;5.244;2023-03-31T00:28:13;100237.0;;;16.97;54.06
61676;BME280;47574;52.090;5.244;2023-03-31T00:29:50;100228.0;;;16.89;54.24
61676;BME280;47574;52.090;5.244;2023-03-31T00:33:03;100227.0;;;16.95;54.12
61676;BME280;47574;52.090;5.244;2023-03-31T00:34:40;100224.0;;;16.95;54.27
61676;BME280;47574;52.090;5.244;2023-03-31T00:36:16;100212.0;;;17.06;54.0
61676;BME280;47574;52.090;5.244;2023-03-31T00:39:29;100210.0;;;17.05;54.03
61676;BME280;47574;52.090;5.244;2023-03-31T00:41:05;100211.0;;;16.9;54.51
61676;BME280;47574;52.090;5.244;2023-03-31T00:42:42;100208.0;;;16.86;54.61
61676;BME280;47574;52.090;5.244;2023-03-31T00:46:03;100205.0;;;16.84;54.57
61676;BME280;47574;52.090;5.244;2023-03-31T00:47:48;100199.0;;;16.82;54.71
61676;BME280;47574;52.090;5.244;2023-03-31T00:49:28;100189.0;;;17.09;54.14
61676;BME280;47574;52.090;5.244;2023-03-31T00:51:06;100184.0;;;17.11;54.03
61676;BME280;47574;52.090;5.244;2023-03-31T00:54:22;100181.0;;;16.93;54.32
61676;BME280;47574;52.090;5.244;2023-03-31T00:56:06;100172.0;;;16.98;54.33
61676;BME280;47574;52.090;5.244;2023-03-31T00:57:44;100167.0;;;16.97;54.38
61676;BME280;47574;52.090;5.244;2023-03-31T00:59:24;100169.0;;;16.68;54.9
61676;BME280;47574;52.090;5.244;2023-03-31T01:02:39;100164.0;;;17.07;54.22
61676;BME280;47574;52.090;5.244;2023-03-31T01:04:17;100158.0;;;16.79;54.93
61676;BME280;47574;52.090;5.244;2023-03-31T01:05:55;100150.0;;;17.02;54.48
61676;BME280;47574;52.090;5.244;2023-03-31T01:07:36;100147.0;;;16.97;54.57
61676;BME280;47574;52.090;5.244;2023-03-31T01:10:57;100147.0;;;17.09;54.35
61676;BME280;47574;52.090;5.244;2023-03-31T01:12:37;100149.0;;;16.57;55.61
61676;BME280;47574;52.090;5.244;2023-03-31T01:14:15;100145.0;;;16.77;55.46
61676;BME280;47574;52.090;5.244;2023-03-31T01:15:51;100139.0;;;17.02;54.93
61676;BME280;47574;52.090;5.244;2023-03-31T01:19:12;100132.0;;;16.95;55.04
61676;BME280;47574;52.090;5.244;2023-03-31T01:21:16;100131.0;;;17.09;54.92
61676;BME280;47574;52.090;5.244;2023-03-31T01:24:13;100125.0;;;17.0;55.27
61676;BME280;47574;52.090;5.244;2023-03-31T01:28:13;100113.0;;;17.16;55.16
61676;BME280;47574;52.090;5.244;2023-03-31T01:30:23;100108.0;;;16.84;56.03
61676;BME280;47574;52.090;5.244;2023-03-31T01:32:25;100102.0;;;17.02;55.88
61676;BME280;47574;52.090;5.244;2023-03-31T01:36:49;100091.0;;;17.03;55.74
61676;BME280;47574;52.090;5.244;2023-03-31T01:38:51;100090.0;;;17.0;55.96
61676;BME280;47574;52.090;5.244;2023-03-31T01:41:49;100080.0;;;16.97;56.05
61676;BME280;47574;52.090;5.244;2023-03-31T01:43:35;100081.0;;;17.21;55.51
61676;BME280;47574;52.090;5.244;2023-03-31T01:45:25;100068.0;;;16.77;56.62
61676;BME280;47574;52.090;5.244;2023-03-31T01:48:52;100069.0;;;17.02;56.24
61676;BME280;47574;52.090;5.244;2023-03-31T01:50:35;100061.0;;;17.11;56.02
61676;BME280;47574;52.090;5.244;2023-03-31T01:52:21;100056.0;;;17.04;56.22
61676;BME280;47574;52.090;5.244;2023-03-31T01:54:05;100052.0;;;16.59;57.7
61676;BME280;47574;52.090;5.244;2023-03-31T01:55:47;100048.0;;;16.79;57.14
61676;BME280;47574;52.090;5.244;2023-03-31T01:59:14;100045.0;;;16.95;56.81
61676;BME280;47574;52.090;5.244;2023-03-31T02:00:57;100040.0;;;16.77;57.16
61676;BME280;47574;52.090;5.244;2023-03-31T02:02:38;100033.0;;;16.93;56.92
61676;BME280;47574;52.090;5.244;2023-03-31T02:04:20;100033.0;;;16.78;57.36
61676;BME280;47574;52.090;5.244;2023-03-31T02:07:46;100028.0;;;17.09;56.6
61676;BME280;47574;52.090;5.244;2023-03-31T02:09:28;100020.0;;;16.9;56.98
61676;BME280;47574;52.090;5.244;2023-03-31T02:11:08;100019.0;;;16.96;57.06
61676;BME280;47574;52.090;5.244;2023-03-31T02:12:46;100014.0;;;16.93;56.79
61676;BME280;47574;52.090;5.244;2023-03-31T02:14:27;100010.0;;;17.13;56.58
61676;BME280;47574;52.090;5.244;2023-03-31T02:17:51;100005.0;;;16.86;57.2
61676;BME280;47574;52.090;5.244;2023-03-31T02:19:32;100000.0;;;16.48;58.15
61676;BME280;47574;52.090;5.244;2023-03-31T02:21:11;99991.0;;;16.75;57.86
61676;BME280;47574;52.090;5.244;2023-03-31T02:22:50;99982.0;;;16.46;58.56
61676;BME280;47574;52.090;5.244;2023-03-31T02:26:11;99983.0;;;17.0;57.35
61676;BME280;47574;52.090;5.244;2023-03-31T02:27:53;99974.0;;;17.18;56.98
61676;BME280;47574;52.090;5.244;2023-03-31T02:29:31;99973.0;;;16.82;58.01
61676;BME280;47574;52.090;5.244;2023-03-31T02:31:20;99964.0;;;17.11;57.56
61676;BME280;47574;52.090;5.244;2023-03-31T02:34:38;99966.0;;;16.93;58.13
61676;BME280;47574;52.090;5.244;2023-03-31T02:36:14;99957.0;;;16.96;58.27
61676;BME280;47574;52.090;5.244;2023-03-31T02:41:09;99945.0;;;16.95;58.8
61676;BME280;47574;52.090;5.244;2023-03-31T02:42:45;99939.0;;;16.96;58.7
61676;BME280;47574;52.090;5.244;2023-03-31T02:44:23;99933.0;;;16.93;58.88
61676;BME280;47574;52.090;5.244;2023-03-31T02:46:00;99932.0;;;16.89;59.15
61676;BME280;47574;52.090;5.244;2023-03-31T02:49:12;99924.0;;;16.47;60.33
61676;BME280;47574;52.090;5.244;2023-03-31T02:51:35;99921.0;;;16.77;59.61
61676;BME280;47574;52.090;5.244;2023-03-31T02:53:56;99912.0;;;16.93;59.46
61676;BME280;47574;52.090;5.244;2023-03-31T02:55:50;99901.0;;;16.84;59.19
61676;BME280;47574;52.090;5.244;2023-03-31T03:00:43;99880.0;;;16.7;60.07
61676;BME280;47574;52.090;5.244;2023-03-31T03:05:00;99869.0;;;16.75;59.67
61676;BME280;47574;52.090;5.244;2023-03-31T03:06:43;99870.0;;;16.91;59.53
61676;BME280;47574;52.090;5.244;2023-03-31T03:08:33;99857.0;;;16.7;59.88
61676;BME280;47574;52.090;5.244;2023-03-31T03:10:26;99851.0;;;16.8;59.83
61676;BME280;47574;52.090;5.244;2023-03-31T03:12:14;99848.0;;;16.75;59.95
61676;BME280;47574;52.090;5.244;2023-03-31T03:13:59;99839.0;;;16.86;59.52
61676;BME280;47574;52.090;5.244;2023-03-31T03:15:44;99835.0;;;16.64;59.9
61676;BME280;47574;52.090;5.244;2023-03-31T03:17:25;99837.0;;;16.23;61.26
61676;BME280;47574;52.090;5.244;2023-03-31T03:20:42;99832.0;;;16.64;60.03
61676;BME280;47574;52.090;5.244;2023-03-31T03:22:19;99824.0;;;16.77;59.65
61676;BME280;47574;52.090;5.244;2023-03-31T03:23:55;99819.0;;;16.43;60.48
61676;BME280;47574;52.090;5.244;2023-03-31T03:25:31;99821.0;;;16.71;59.91
61676;BME280;47574;52.090;5.244;2023-03-31T03:28:43;99813.0;;;16.82;59.74
61676;BME280;47574;52.090;5.244;2023-03-31T03:30:19;99811.0;;;16.87;59.2
61676;BME280;47574;52.090;5.244;2023-03-31T03:31:55;99809.0;;;16.86;59.4
61676;BME280;47574;52.090;5.244;2023-03-31T03:35:09;99799.0;;;16.45;60.51
61676;BME280;47574;52.090;5.244;2023-03-31T03:36:45;99794.0;;;16.22;60.99
61676;BME280;47574;52.090;5.244;2023-03-31T03:38:22;99784.0;;;16.61;60.21
61676;BME280;47574;52.090;5.244;2023-03-31T03:41:34;99778.0;;;16.79;59.56
61676;BME280;47574;52.090;5.244;2023-03-31T03:43:11;99771.0;;;16.79;60.19
61676;BME280;47574;52.090;5.244;2023-03-31T03:44:47;99769.0;;;16.5;60.46
61676;BME280;47574;52.090;5.244;2023-03-31T03:48:00;99768.0;;;16.32;60.71
61676;BME280;47574;52.090;5.244;2023-03-31T03:49:36;99771.0;;;16.62;60.3
61676;BME280;47574;52.090;5.244;2023-03-31T03:51:12;99758.0;;;16.7;60.02
61676;BME280;47574;52.090;5.244;2023-03-31T03:52:48;99753.0;;;16.12;61.19
61676;BME280;47574;52.090;5.244;2023-03-31T03:56:01;99760.0;;;16.18;61.12
61676;BME280;47574;52.090;5.244;2023-03-31T03:57:37;99753.0;;;16.3;61.46
61676;BME280;47574;52.090;5.244;2023-03-31T03:59:14;99751.0;;;16.03;61.58
61676;BME280;47574;52.090;5.244;2023-03-31T04:02:26;99738.0;;;16.38;61.19
61676;BME280;47574;52.090;5.244;2023-03-31T04:04:02;99732.0;;;16.18;61.44
61676;BME280;47574;52.090;5.244;2023-03-31T04:05:38;99725.0;;;16.29;61.51
61676;BME280;47574;52.090;5.244;2023-03-31T04:08:50;99716.0;;;16.3;61.22
61676;BME280;47574;52.090;5.244;2023-03-31T04:10:26;99719.0;;;16.57;60.52
61676;BME280;47574;52.090;5.244;2023-03-31T04:12:03;99712.0;;;16.47;61.11
61676;BME280;47574;52.090;5.244;2023-03-31T04:13:39;99703.0;;;16.0;61.67
61676;BME280;47574;52.090;5.244;2023-03-31T04:16:51;99698.0;;;16.29;60.99
61676;BME280;47574;52.090;5.244;2023-03-31T04:18:27;99689.0;;;16.0;62.11
61676;BME280;47574;52.090;5.244;2023-03-31T04:20:05;99685.0;;;16.27;61.79
61676;BME280;47574;52.090;5.244;2023-03-31T04:23:20;99676.0;;;16.3;61.25
61676;BME280;47574;52.090;5.244;2023-03-31T04:24:56;99668.0;;;16.21;61.27
61676;BME280;47574;52.090;5.244;2023-03-31T04:26:33;99664.0;;;16.63;60.52
61676;BME280;47574;52.090;5.244;2023-03-31T04:29:46;99655.0;;;16.56;60.44
61676;BME280;47574;52.090;5.244;2023-03-31T04:31:22;99653.0;;;16.45;60.8
61676;BME280;47574;52.090;5.244;2023-03-31T04:33:00;99646.0;;;16.59;60.67
61676;BME280;47574;52.090;5.244;2023-03-31T04:34:37;99643.0;;;16.4;60.47
61676;BME280;47574;52.090;5.244;2023-03-31T04:37:51;99636.0;;;16.37;60.98
61676;BME280;47574;52.090;5.244;2023-03-31T04:39:29;99632.0;;;16.45;60.64
61676;BME280;47574;52.090;5.244;2023-03-31T04:41:04;99636.0;;;16.61;60.36
61676;BME280;47574;52.090;5.244;2023-03-31T04:44:16;99620.0;;;16.2;60.94
61676;BME280;47574;52.090;5.244;2023-03-31T04:45:51;99616.0;;;16.31;60.87
61676;BME280;47574;52.090;5.244;2023-03-31T04:47:28;99611.0;;;16.25;60.91
61676;BME280;47574;52.090;5.244;2023-03-31T04:50:40;99605.0;;;15.97;61.64
61676;BME280;47574;52.090;5.244;2023-03-31T04:52:16;99599.0;;;16.36;60.76
61676;BME280;47574;52.090;5.244;2023-03-31T04:53:52;99596.0;;;16.27;61.01
61676;BME280;47574;52.090;5.244;2023-03-31T04:55:28;99595.0;;;16.46;60.47
61676;BME280;47574;52.090;5.244;2023-03-31T04:58:42;99585.0;;;16.2;61.09
61676;BME280;47574;52.090;5.244;2023-03-31T05:00:19;99580.0;;;16.25;61.1
61676;BME280;47574;52.090;5.244;2023-03-31T05:01:56;99572.0;;;16.25;61.0
61676;BME280;47574;52.090;5.244;2023-03-31T05:05:09;99575.0;;;16.34;60.77
61676;BME280;47574;52.090;5.244;2023-03-31T05:06:45;99573.0;;;16.34;61.1
61676;BME280;47574;52.090;5.244;2023-03-31T05:08:21;99572.0;;;16.25;60.87
61676;BME280;47574;52.090;5.244;2023-03-31T05:11:33;99566.0;;;16.31;60.88
61676;BME280;47574;52.090;5.244;2023-03-31T05:13:10;99562.0;;;16.2;61.02
61676;BME280;47574;52.090;5.244;2023-03-31T05:14:46;99553.0;;;16.05;61.63
61676;BME280;47574;52.090;5.244;2023-03-31T05:17:58;99550.0;;;16.38;60.89
61676;BME280;47574;52.090;5.244;2023-03-31T05:19:35;99548.0;;;16.28;60.75
61676;BME280;47574;52.090;5.244;2023-03-31T05:21:13;99545.0;;;16.45;60.42
61676;BME280;47574;52.090;5.244;2023-03-31T05:22:50;99544.0;;;16.15;61.05
61676;BME280;47574;52.090;5.244;2023-03-31T05:26:03;99541.0;;;16.16;60.91
61676;BME280;47574;52.090;5.244;2023-03-31T05:27:40;99539.0;;;16.38;60.58
61676;BME280;47574;52.090;5.244;2023-03-31T05:29:16;99533.0;;;16.4;60.52
61676;BME280;47574;52.090;5.244;2023-03-31T05:32:28;99530.0;;;16.38;60.36
61676;BME280;47574;52.090;5.244;2023-03-31T05:34:05;99527.0;;;16.15;60.91
61676;BME280;47574;52.090;5.244;2023-03-31T05:35:43;99519.0;;;16.39;60.21
61676;BME280;47574;52.090;5.244;2023-03-31T05:38:55;99520.0;;;16.03;60.98
61676;BME280;47574;52.090;5.244;2023-03-31T05:40:31;99523.0;;;16.5;59.7
61676;BME280;47574;52.090;5.244;2023-03-31T05:42:07;99519.0;;;16.05;61.08
61676;BME280;47574;52.090;5.244;2023-03-31T05:43:43;99513.0;;;16.61;59.78
61676;BME280;47574;52.090;5.244;2023-03-31T05:46:55;99512.0;;;16.2;60.47
61676;BME280;47574;52.090;5.244;2023-03-31T05:48:31;99511.0;;;15.89;61.0
61676;BME280;47574;52.090;5.244;2023-03-31T05:50:08;99509.0;;;16.12;60.96
61676;BME280;47574;52.090;5.244;2023-03-31T05:53:22;99501.0;;;16.11;61.31
61676;BME280;47574;52.090;5.244;2023-03-31T05:54:58;99498.0;;;16.4;60.1
61676;BME280;47574;52.090;5.244;2023-03-31T05:56:34;99494.0;;;16.45;59.87
61676;BME280;47574;52.090;5.244;2023-03-31T05:59:46;99495.0;;;16.3;60.47
61676;BME280;47574;52.090;5.244;2023-03-31T06:01:22;99490.0;;;15.99;60.84
61676;BME280;47574;52.090;5.244;2023-03-31T06:02:58;99490.0;;;16.18;60.64
61676;BME280;47574;52.090;5.244;2023-03-31T06:04:35;99484.0;;;16.13;60.4
61676;BME280;47574;52.090;5.244;2023-03-31T06:07:48;99483.0;;;16.11;60.66
61676;BME280;47574;52.090;5.244;2023-03-31T06:09:24;99477.0;;;16.3;60.37
61676;BME280;47574;52.090;5.244;2023-03-31T06:11:03;99473.0;;;15.99;60.66
61676;BME280;47574;52.090;5.244;2023-03-31T06:14:17;99477.0;;;15.76;61.22
61676;BME280;47574;52.090;5.244;2023-03-31T06:15:53;99474.0;;;16.07;60.2
61676;BME280;47574;52.090;5.244;2023-03-31T06:17:30;99473.0;;;15.72;61.38
61676;BME280;47574;52.090;5.244;2023-03-31T06:20:43;99473.0;;;16.14;60.44
61676;BME280;47574;52.090;5.244;2023-03-31T06:22:19;99465.0;;;16.38;59.67
61676;BME280;47574;52.090;5.244;2023-03-31T06:23:55;99467.0;;;16.46;59.26
61676;BME280;47574;52.090;5.244;2023-03-31T06:25:31;99464.0;;;16.43;59.34
61676;BME280;47574;52.090;5.244;2023-03-31T06:28:43;99462.0;;;16.38;59.36
61676;BME280;47574;52.090;5.244;2023-03-31T06:30:19;99463.0;;;16.5;59.02
61676;BME280;47574;52.090;5.244;2023-03-31T06:31:55;99468.0;;;16.48;59.31
61676;BME280;47574;52.090;5.244;2023-03-31T06:35:08;99466.0;;;16.03;59.91
61676;BME280;47574;52.090;5.244;2023-03-31T06:36:43;99462.0;;;16.38;59.33
61676;BME280;47574;52.090;5.244;2023-03-31T06:38:19;99461.0;;;16.45;59.13
61676;BME280;47574;52.090;5.244;2023-03-31T06:41:32;99455.0;;;16.25;59.48
61676;BME280;47574;52.090;5.244;2023-03-31T06:43:08;99451.0;;;16.05;59.95
61676;BME280;47574;52.090;5.244;2023-03-31T06:44:44;99444.0;;;16.31;59.88
61676;BME280;47574;52.090;5.244;2023-03-31T06:47:56;99448.0;;;16.36;59.36
61676;BME280;47574;52.090;5.244;2023-03-31T06:49:32;99452.0;;;16.52;59.47
61676;BME280;47574;52.090;5.244;2023-03-31T06:51:09;99452.0;;;16.16;59.91
61676;BME280;47574;52.090;5.244;2023-03-31T06:52:46;99444.0;;;16.57;59.19
61676;BME280;47574;52.090;5.244;2023-03-31T06:55:58;99450.0;;;16.23;59.62
61676;BME280;47574;52.090;5.244;2023-03-31T06:57:35;99445.0;;;16.38;59.66
61676;BME280;47574;52.090;5.244;2023-03-31T06:59:11;99441.0;;;16.48;59.89
61676;BME280;47574;52.090;5.244;2023-03-31T07:02:23;99432.0;;;16.68;59.47
61676;BME280;47574;52.090;5.244;2023-03-31T07:03:59;99430.0;;;16.53;59.14
61676;BME280;47574;52.090;5.244;2023-03-31T07:08:47;99430.0;;;16.21;60.0
61676;BME280;47574;52.090;5.244;2023-03-31T07:10:24;99431.0;;;16.68;59.26
61676;BME280;47574;52.090;5.244;2023-03-31T07:12:01;99437.0;;;16.63;59.63
61676;BME280;47574;52.090;5.244;2023-03-31T07:13:37;99432.0;;;16.32;60.14
61676;BME280;47574;52.090;5.244;2023-03-31T07:16:51;99427.0;;;16.45;59.88
61676;BME280;47574;52.090;5.244;2023-03-31T07:18:27;99424.0;;;16.39;60.08
61676;BME280;47574;52.090;5.244;2023-03-31T07:20:03;99422.0;;;16.5;59.93
61676;BME280;47574;52.090;5.244;2023-03-31T07:23:16;99423.0;;;16.61;59.77
61676;BME280;47574;52.090;5.244;2023-03-31T07:24:53;99423.0;;;16.31;60.23
61676;BME280;47574;52.090;5.244;2023-03-31T07:26:29;99421.0;;;16.09;61.03
61676;BME280;47574;52.090;5.244;2023-03-31T07:29:40;99415.0;;;16.5;60.12
61676;BME280;47574;52.090;5.244;2023-03-31T07:31:17;99413.0;;;16.46;60.09
61676;BME280;47574;52.090;5.244;2023-03-31T07:32:53;99414.0;;;16.37;60.32
61676;BME280;47574;52.090;5.244;2023-03-31T07:34:29;99409.0;;;16.53;60.12
61676;BME280;47574;52.090;5.244;2023-03-31T07:37:44;99409.0;;;16.66;59.92
61676;BME280;47574;52.090;5.244;2023-03-31T07:39:21;99408.0;;;16.46;60.49
61676;BME280;47574;52.090;5.244;2023-03-31T07:40:58;99411.0;;;16.31;60.77
61676;BME280;47574;52.090;5.244;2023-03-31T07:44:11;99410.0;;;16.53;60.6
61676;BME280;47574;52.090;5.244;2023-03-31T07:45:47;99410.0;;;16.61;60.53
61676;BME280;47574;52.090;5.244;2023-03-31T07:47:23;99408.0;;;16.5;60.33
61676;BME280;47574;52.090;5.244;2023-03-31T07:50:37;99405.0;;;16.52;60.55
61676;BME280;47574;52.090;5.244;2023-03-31T07:52:13;99403.0;;;16.57;60.25
61676;BME280;47574;52.090;5.244;2023-03-31T07:53:49;99406.0;;;16.77;59.95
61676;BME280;47574;52.090;5.244;2023-03-31T07:55:25;99405.0;;;16.48;60.1
61676;BME280;47574;52.090;5.244;2023-03-31T07:58:37;99402.0;;;16.53;60.83
61676;BME280;47574;52.090;5.244;2023-03-31T08:00:15;99392.0;;;16.37;61.09
61676;BME280;47574;52.090;5.244;2023-03-31T08:01:51;99393.0;;;16.37;61.2
61676;BME280;47574;52.090;5.244;2023-03-31T08:05:03;99392.0;;;16.09;61.45
61676;BME280;47574;52.090;5.244;2023-03-31T08:06:40;99388.0;;;16.38;61.32
61676;BME280;47574;52.090;5.244;2023-03-31T08:08:16;99386.0;;;16.47;61.18
61676;BME280;47574;52.090;5.244;2023-03-31T08:11:29;99384.0;;;16.39;61.2
61676;BME280;47574;52.090;5.244;2023-03-31T08:13:05;99378.0;;;16.32;61.76
61676;BME280;47574;52.090;5.244;2023-03-31T08:14:41;99380.0;;;16.53;61.38
61676;BME280;47574;52.090;5.244;2023-03-31T08:17:53;99376.0;;;16.77;60.61
61676;BME280;47574;52.090;5.244;2023-03-31T08:19:30;99376.0;;;16.73;60.8
61676;BME280;47574;52.090;5.244;2023-03-31T08:21:06;99375.0;;;16.68;60.79
61676;BME280;47574;52.090;5.244;2023-03-31T08:22:43;99369.0;;;16.81;60.74
61676;BME280;47574;52.090;5.244;2023-03-31T08:26:06;99361.0;;;16.54;60.99
61676;BME280;47574;52.090;5.244;2023-03-31T08:27:44;99363.0;;;16.59;60.85
61676;BME280;47574;52.090;5.244;2023-03-31T08:29:20;99358.0;;;16.7;60.84
61676;BME280;47574;52.090;5.244;2023-03-31T08:32:38;99358.0;;;16.77;60.71
61676;BME280;47574;52.090;5.244;2023-03-31T08:34:15;99353.0;;;16.57;61.27
61676;BME280;47574;52.090;5.244;2023-03-31T08:35:51;99350.0;;;16.77;60.45
61676;BME280;47574;52.090;5.244;2023-03-31T08:37:27;99345.0;;;16.96;60.29
61676;BME280;47574;52.090;5.244;2023-03-31T08:40:40;99345.0;;;16.93;60.46
61676;BME280;47574;52.090;5.244;2023-03-31T08:42:21;99346.0;;;16.86;60.75
61676;BME280;47574;52.090;5.244;2023-03-31T08:44:02;99341.0;;;17.06;60.36
61676;BME280;47574;52.090;5.244;2023-03-31T08:45:42;99340.0;;;16.77;60.38
61676;BME280;47574;52.090;5.244;2023-03-31T08:49:02;99337.0;;;16.55;60.9
61676;BME280;47574;52.090;5.244;2023-03-31T08:50:43;99337.0;;;16.57;61.2
61676;BME280;47574;52.090;5.244;2023-03-31T08:52:28;99338.0;;;16.61;61.34
61676;BME280;47574;52.090;5.244;2023-03-31T08:54:12;99336.0;;;16.52;61.37
61676;BME280;47574;52.090;5.244;2023-03-31T08:57:34;99337.0;;;16.45;61.95
61676;BME280;47574;52.090;5.244;2023-03-31T08:59:19;99331.0;;;16.86;60.79
61676;BME280;47574;52.090;5.244;2023-03-31T09:01:11;99330.0;;;16.86;61.05
61676;BME280;47574;52.090;5.244;2023-03-31T09:02:58;99326.0;;;16.84;61.03
61676;BME280;47574;52.090;5.244;2023-03-31T09:04:49;99327.0;;;16.68;61.42
61676;BME280;47574;52.090;5.244;2023-03-31T09:06:51;99325.0;;;16.73;61.13
61676;BME280;47574;52.090;5.244;2023-03-31T09:10:22;99327.0;;;16.77;61.09
61676;BME280;47574;52.090;5.244;2023-03-31T09:12:10;99324.0;;;16.84;61.03
61676;BME280;47574;52.090;5.244;2023-03-31T09:14:02;99316.0;;;16.75;61.21
61676;BME280;47574;52.090;5.244;2023-03-31T09:15:54;99323.0;;;16.95;60.93
61676;BME280;47574;52.090;5.244;2023-03-31T09:17:40;99316.0;;;16.66;61.71
61676;BME280;47574;52.090;5.244;2023-03-31T09:19:29;99322.0;;;16.91;61.06
61676;BME280;47574;52.090;5.244;2023-03-31T09:21:17;99320.0;;;17.34;60.0
61676;BME280;47574;52.090;5.244;2023-03-31T09:24:47;99311.0;;;16.64;60.99
61676;BME280;47574;52.090;5.244;2023-03-31T09:26:32;99317.0;;;17.25;59.91
61676;BME280;47574;52.090;5.244;2023-03-31T09:28:18;99314.0;;;17.06;60.59
61676;BME280;47574;52.090;5.244;2023-03-31T09:29:57;99310.0;;;16.78;60.56
61676;BME280;47574;52.090;5.244;2023-03-31T09:33:18;99308.0;;;17.18;60.39
61676;BME280;47574;52.090;5.244;2023-03-31T09:35:15;99305.0;;;17.16;60.16
61676;BME280;47574;52.090;5.244;2023-03-31T09:36:53;99309.0;;;17.06;59.73
61676;BME280;47574;52.090;5.244;2023-03-31T09:38:29;99305.0;;;17.12;59.51
61676;BME280;47574;52.090;5.244;2023-03-31T09:40:12;99305.0;;;16.95;59.32
61676;BME280;47574;52.090;5.244;2023-03-31T09:43:30;99311.0;;;17.0;59.58
61676;BME280;47574;52.090;5.244;2023-03-31T09:45:13;99306.0;;;17.36;59.03
61676;BME280;47574;52.090;5.244;2023-03-31T09:46:50;99311.0;;;17.05;59.67
61676;BME280;47574;52.090;5.244;2023-03-31T09:48:33;99307.0;;;17.0;59.32
61676;BME280;47574;52.090;5.244;2023-03-31T09:51:50;99302.0;;;16.78;59.45
61676;BME280;47574;52.090;5.244;2023-03-31T09:53:39;99305.0;;;16.82;59.24
61676;BME280;47574;52.090;5.244;2023-03-31T09:55:20;99299.0;;;17.11;58.89
61676;BME280;47574;52.090;5.244;2023-03-31T09:56:58;99300.0;;;16.93;58.81
61676;BME280;47574;52.090;5.244;2023-03-31T10:00:18;99293.0;;;17.3;58.24
61676;BME280;47574;52.090;5.244;2023-03-31T10:01:58;99288.0;;;17.18;58.15
61676;BME280;47574;52.090;5.244;2023-03-31T10:03:44;99295.0;;;17.16;58.07
61676;BME280;47574;52.090;5.244;2023-03-31T10:05:27;99292.0;;;17.07;58.09
61676;BME280;47574;52.090;5.244;2023-03-31T10:08:41;99293.0;;;16.97;57.87
61676;BME280;47574;52.090;5.244;2023-03-31T10:10:27;99293.0;;;17.48;56.66
61676;BME280;47574;52.090;5.244;2023-03-31T10:12:14;99280.0;;;17.64;57.0
61676;BME280;47574;52.090;5.244;2023-03-31T10:13:58;99280.0;;;18.02;56.09
61676;BME280;47574;52.090;5.244;2023-03-31T10:15:36;99274.0;;;17.81;56.17
61676;BME280;47574;52.090;5.244;2023-03-31T10:18:52;99271.0;;;17.61;56.27
61676;BME280;47574;52.090;5.244;2023-03-31T10:20:32;99267.0;;;17.59;56.2
61676;BME280;47574;52.090;5.244;2023-03-31T10:22:14;99261.0;;;17.2;56.38
61676;BME280;47574;52.090;5.244;2023-03-31T10:25:29;99263.0;;;17.54;55.55
61676;BME280;47574;52.090;5.244;2023-03-31T10:27:06;99265.0;;;18.09;55.26
61676;BME280;47574;52.090;5.244;2023-03-31T10:28:50;99255.0;;;17.95;54.72
61676;BME280;47574;52.090;5.244;2023-03-31T10:30:31;99256.0;;;18.23;54.72
61676;BME280;47574;52.090;5.244;2023-03-31T10:33:57;99251.0;;;17.77;54.67
61676;BME280;47574;52.090;5.244;2023-03-31T10:35:35;99255.0;;;18.25;54.1
61676;BME280;47574;52.090;5.244;2023-03-31T10:38:53;99246.0;;;17.63;54.04
61676;BME280;47574;52.090;5.244;2023-03-31T10:42:08;99241.0;;;17.61;54.4
61676;BME280;47574;52.090;5.244;2023-03-31T10:43:48;99244.0;;;17.72;54.08
61676;BME280;47574;52.090;5.244;2023-03-31T10:45:27;99248.0;;;17.53;54.56
61676;BME280;47574;52.090;5.244;2023-03-31T10:47:16;99252.0;;;17.68;54.79
61676;BME280;47574;52.090;5.244;2023-03-31T10:50:32;99248.0;;;17.36;54.92
61676;BME280;47574;52.090;5.244;2023-03-31T10:52:16;99245.0;;;17.59;54.46
61676;BME280;47574;52.090;5.244;2023-03-31T10:53:54;99247.0;;;17.41;55.06
61676;BME280;47574;52.090;5.244;2023-03-31T10:55:40;99243.0;;;17.29;55.41
61676;BME280;47574;52.090;5.244;2023-03-31T10:58:21;99238.0;;;17.52;55.54
61676;BME280;47574;52.090;5.244;2023-03-31T11:00:13;99244.0;;;17.46;55.38
61676;BME280;47574;52.090;5.244;2023-03-31T11:02:01;99241.0;;;17.75;55.46
61676;BME280;47574;52.090;5.244;2023-03-31T11:05:13;99231.0;;;17.34;56.72
61676;BME280;47574;52.090;5.244;2023-03-31T11:06:57;99241.0;;;17.96;55.95
61676;BME280;47574;52.090;5.244;2023-03-31T11:08:50;99240.0;;;17.59;56.35
61676;BME280;47574;52.090;5.244;2023-03-31T11:10:37;99240.0;;;17.36;57.28
61676;BME280;47574;52.090;5.244;2023-03-31T11:12:35;99236.0;;;17.3;57.33
61676;BME280;47574;52.090;5.244;2023-03-31T11:14:19;99233.0;;;17.36;57.58
61676;BME280;47574;52.090;5.244;2023-03-31T11:18:03;99226.0;;;17.3;57.74
61676;BME280;47574;52.090;5.244;2023-03-31T11:19:49;99227.0;;;17.45;57.2
61676;BME280;47574;52.090;5.244;2023-03-31T11:21:37;99225.0;;;17.36;57.31
61676;BME280;47574;52.090;5.244;2023-03-31T11:23:27;99226.0;;;17.43;57.51
61676;BME280;47574;52.090;5.244;2023-03-31T11:25:15;99236.0;;;16.98;58.68
61676;BME280;47574;52.090;5.244;2023-03-31T11:27:04;99233.0;;;17.13;57.98
61676;BME280;47574;52.090;5.244;2023-03-31T11:28:56;99230.0;;;17.25;57.65
61676;BME280;47574;52.090;5.244;2023-03-31T11:32:36;99224.0;;;17.3;57.86